Flight Track Log - Related Links

Times and Time Zones

All times are in EDT time to prevent confusion due to time zone crossing. See the AWE1454 flight status page for this flight to view local times or setup timezone preferences in your user account.

Time Position Orientation Groundspeed Altitude Reporting Facility
EDT Latitude Longitude Course Direction KTS MPH feet Rate Location/Type
Mon 01:02:40 PM 33.6500 -84.4500 53° Northeast 155 178 2,100  Level Atlanta TRACON
Mon 01:03:34 PM 33.6667 -84.5000 292° West 209 241 3,200 2,200 Climbing Atlanta TRACON
Mon 01:04:00 PM 33.8526 -84.1482 73° East  Level Estimated
Mon 01:04:40 PM 33.7000 -84.5833 296° West 236 272 6,500  Level Atlanta TRACON
Mon 01:05:00 PM 33.9244 -84.0547 54° Northeast  Level Estimated
Mon 01:05:46 PM 33.7833 -84.5667 North 296 341 9,300  Level Atlanta TRACON
Mon 01:06:00 PM 33.8982 -83.9312 104° East  Level FlightAware Approximate
Mon 01:06:40 PM 33.8167 -84.5000 59° Northeast 337 388 11,000  Level Atlanta TRACON
Mon 01:07:00 PM 33.9706 -83.8383 48° Northeast  Level Estimated
Mon 01:07:40 PM 33.8167 -84.3667 90° East 367 422 13,600  Level Atlanta TRACON
Mon 01:08:00 PM 34.0429 -83.7452 53° Northeast  Level Estimated
Mon 01:09:55 PM 33.8486 -84.1089 81° East 384 442 17,100  Level Atlanta Center
Mon 01:10:55 PM 33.8736 -83.9836 76° East 378 435 19,100 1,950 Climbing Atlanta Center
Mon 01:11:55 PM 33.9006 -83.8536 76° East 388 447 21,000 1,800 Climbing Atlanta Center
Mon 01:12:55 PM 33.9358 -83.7083 74° East 397 457 22,700 1,500 Climbing Atlanta Center
Mon 01:13:55 PM 34.0106 -83.5903 53° Northeast 438 504 24,000 1,350 Climbing Atlanta Center
Mon 01:14:55 PM 34.0850 -83.4694 53° Northeast 443 510 25,400 1,300 Climbing Atlanta Center
Mon 01:15:55 PM 34.1639 -83.3458 52° Northeast 453 521 26,600 1,350 Climbing Atlanta Center
Mon 01:16:55 PM 34.2444 -83.2194 52° Northeast 465 535 28,100 1,250 Climbing Atlanta Center
Mon 01:17:55 PM 34.3292 -83.0906 51° Northeast 472 543 29,100 1,050 Climbing Atlanta Center
Mon 01:18:55 PM 34.4094 -82.9561 54° Northeast 479 551 30,200 1,300 Climbing Atlanta Center
Mon 01:19:55 PM 34.4894 -82.8214 54° Northeast 485 558 31,700 1,400 Climbing Atlanta Center
Mon 01:20:55 PM 34.5694 -82.6917 53° Northeast 485 558 33,000 1,300 Climbing Atlanta Center
Mon 01:21:55 PM 34.6411 -82.5744 53° Northeast 479 551 34,300 1,000 Climbing Atlanta Center
Mon 01:22:55 PM 34.7189 -82.4492 53° Northeast 468 539 35,000 350 Climbing Atlanta Center
Mon 01:23:55 PM 34.7986 -82.3186 53° Northeast 468 539 35,000 150 Level Atlanta Center
Mon 01:24:55 PM 34.8758 -82.1881 54° Northeast 473 544 35,300 500 Climbing Atlanta Center
Mon 01:25:55 PM 34.9553 -82.0594 53° Northeast 478 550 36,000 350 Climbing Atlanta Center
Mon 01:26:55 PM 35.0325 -81.9283 54° Northeast 471 542 36,000  Level Atlanta Center
Mon 01:27:55 PM 35.1114 -81.7842 56° Northeast 466 536 36,000 250 Level Atlanta Center
Mon 01:28:55 PM 35.1839 -81.6500 57° Northeast 466 536 36,500 500 Climbing Atlanta Center
Mon 01:29:55 PM 35.2522 -81.5158 58° Northeast 474 545 37,000 250 Climbing Atlanta Center
Mon 01:30:55 PM 35.3264 -81.3761 57° Northeast 474 545 37,000  Level Atlanta Center
Mon 01:31:55 PM 35.3983 -81.2336 58° Northeast 480 552 37,000  Level Atlanta Center
Mon 01:32:55 PM 35.4700 -81.0936 58° Northeast 487 560 37,000  Level Atlanta Center
Mon 01:33:55 PM 35.5458 -80.9503 57° Northeast 494 568 37,000  Level Atlanta Center
Mon 01:34:55 PM 35.6194 -80.8072 58° Northeast 489 563 37,000  Level Atlanta Center
Mon 01:35:55 PM 35.6908 -80.6686 58° Northeast 489 563 37,000  Level Atlanta Center
Mon 01:36:55 PM 35.7639 -80.5275 57° Northeast 489 563 37,000  Level Atlanta Center
Mon 01:38:30 PM 35.8686 -80.3186 58° Northeast 478 550 37,000  Level Washington Center
Mon 01:39:28 PM 35.9478 -80.1617 58° Northeast 483 556 37,000  Level Washington Center
Mon 01:40:28 PM 36.0217 -80.0272 56° Northeast 478 550 37,000  Level Washington Center
Mon 01:41:28 PM 36.0997 -79.8878 55° Northeast 478 550 37,000  Level Washington Center
Mon 01:42:29 PM 36.1778 -79.7453 56° Northeast 496 571 37,000  Level Washington Center
Mon 01:43:30 PM 36.2469 -79.6200 56° Northeast 496 571 37,000  Level Washington Center
Mon 01:44:30 PM 36.3356 -79.4647 55° Northeast 491 565 37,000  Level Washington Center
Mon 01:45:28 PM 36.4064 -79.3367 55° Northeast 491 565 37,000  Level Washington Center
Mon 01:46:29 PM 36.4903 -79.1831 56° Northeast 491 565 37,000 -149 Level Washington Center
Mon 01:47:29 PM 36.5714 -79.0472 53° Northeast 491 565 36,700 -450 Descending Washington Center
Mon 01:48:29 PM 36.6506 -78.9031 56° Northeast 491 565 36,100 -347 Descending Washington Center
Mon 01:49:30 PM 36.7211 -78.7689 57° Northeast 504 580 36,000 -50 Descending Washington Center
Mon 01:50:28 PM 36.8019 -78.6269 55° Northeast 504 580 36,000  Level Washington Center
Mon 01:51:29 PM 36.8933 -78.4772 53° Northeast 494 568 36,000  Level Washington Center
Mon 01:52:29 PM 36.9917 -78.3742 40° Northeast 489 563 36,000  Level Washington Center
Mon 01:53:30 PM 37.1153 -78.2642 35° Northeast 490 564 36,000  Level Washington Center
Mon 01:54:28 PM 37.2261 -78.1583 37° Northeast 496 571 36,000 -151 Level Washington Center
Mon 01:55:29 PM 37.3344 -78.0575 36° Northeast 491 565 35,700 -1,426 Descending Washington Center
Mon 01:56:30 PM 37.4450 -77.9539 37° Northeast 491 565 33,100 -2,672 Descending Washington Center
Mon 01:57:28 PM 37.5597 -77.8447 37° Northeast 496 571 30,400 -2,085 Descending Washington Center
Mon 01:58:28 PM 37.6744 -77.7356 37° Northeast 496 571 29,000 -694 Descending Washington Center
Mon 01:59:29 PM 37.7889 -77.6308 36° Northeast 501 577 29,000  Level Washington Center
Mon 02:00:28 PM 37.9011 -77.5208 38° Northeast 501 577 29,000  Level Washington Center
Mon 02:01:28 PM 38.0175 -77.4131 36° Northeast 506 582 29,000  Level Washington Center
Mon 02:02:29 PM 38.1211 -77.3178 36° Northeast 506 582 29,000  Level Washington Center
Mon 02:03:29 PM 38.2353 -77.2069 37° Northeast 511 588 29,000  Level Washington Center
Mon 02:04:29 PM 38.3494 -77.0956 37° Northeast 519 597 29,000  Level Washington Center
Mon 02:05:31 PM 38.4761 -76.9681 38° Northeast 524 603 29,000 -1,200 Level Washington Center
Mon 02:06:29 PM 38.5919 -76.8586 36° Northeast 524 603 26,600 -2,542 Descending Washington Center
Mon 02:07:29 PM 38.6911 -76.7406 43° Northeast 503 579 24,000 -2,430 Descending Washington Center
Mon 02:08:30 PM 38.7361 -76.5869 69° East 451 519 21,700 -2,067 Descending Washington Center
Mon 02:09:28 PM 38.7664 -76.4383 75° East 438 504 19,900 -1,831 Descending Washington Center
Mon 02:10:28 PM 38.7944 -76.2947 76° East 431 496 18,100 -950 Descending Washington Center
Mon 02:11:28 PM 38.8181 -76.1831 75° East 408 470 18,000 -545 Descending Washington Center
Mon 02:12:29 PM 38.8542 -76.0314 73° East 408 470 17,000 -1,140 Descending Washington Center
Mon 02:13:29 PM 38.8858 -75.9036 72° East 393 452 15,700 -1,160 Descending Washington Center
Mon 02:14:28 PM 38.9653 -75.8186 40° Northeast 361 415 14,700 -1,150 Descending Washington Center
Mon 02:15:29 PM 39.0611 -75.7653 23° Northeast 351 404 13,400 -1,527 Descending Washington Center
Mon 02:17:17 PM 39.2333 -75.6833 20° North 331 381 10,400 -1,250 Descending Philadelphia TRACON
Mon 02:18:17 PM 39.3167 -75.6333 25° Northeast 285 328 9,900 -1,200 Descending Philadelphia TRACON
Mon 02:19:17 PM 39.3833 -75.5667 38° Northeast 291 335 8,000 -1,381 Descending Philadelphia TRACON
Mon 02:20:23 PM 39.4333 -75.4833 52° Northeast 287 330 7,000 -762 Descending Philadelphia TRACON
Mon 02:21:23 PM 39.5000 -75.4000 44° Northeast 289 333 6,400 -500 Descending Philadelphia TRACON
Mon 02:22:23 PM 39.5500 -75.3333 46° Northeast 278 320 6,000 -211 Descending Philadelphia TRACON
Mon 02:23:17 PM 39.6167 -75.3167 11° North 290 334 6,000  Level Philadelphia TRACON
Mon 02:24:17 PM 39.6833 -75.3500 339° North 249 287 6,000  Level Philadelphia TRACON
Mon 02:25:17 PM 39.7333 -75.4000 322° Northwest 212 244 6,000  Level Philadelphia TRACON
Mon 02:26:17 PM 39.7167 -75.4667 252° West 201 231 6,000 -350 Level Philadelphia TRACON
Mon 02:27:17 PM 39.7000 -75.5333 252° West 199 229 5,300 -1,000 Descending Philadelphia TRACON
Mon 02:28:17 PM 39.7333 -75.5833 311° West 224 258 4,000 -650 Descending Philadelphia TRACON
Mon 02:29:17 PM 39.7833 -75.5667 14° North 222 255 4,000 -300 Level Philadelphia TRACON
Mon 02:30:17 PM 39.8167 -75.5000 57° Northeast 177 204 3,400 -650 Descending Philadelphia TRACON
Mon 02:31:17 PM 39.8333 -75.4500 67° East 180 207 2,700 -800 Descending Philadelphia TRACON
Mon 02:32:17 PM 39.8333 -75.3833 90° East 175 201 1,800 -850 Descending Philadelphia TRACON
Mon 02:33:17 PM 39.8500 -75.3333 67° East 129 148 1,000 -750 Descending Philadelphia TRACON
Mon 02:34:17 PM 39.8667 -75.2833 67° East 133 153 300 -700 Descending Philadelphia TRACON

Login

Don't have an account? Register now (free) for customized features, flight alerts, and more!